Time;durP1;ratioP1;P1;durP2;ratioP2;P2;SDS_P1;SDS_P2;PMS_P1;PMS_P2;Temp;Humidity;BMP_temperature;BMP_pressure;BME280_temperature;BME280_humidity;BME280_pressure;Samples;Min_cycle;Max_cycle;Signal;HPM_P1;HPM_P2
2023/12/10 00:00:33;;;;;;;;;;;;;;;;;;6275743;28;20357;-76
2023/12/10 00:03:33;;;;;;;;;;;;;;;;;;5942918;28;9999983;-76
2023/12/10 00:06:33;;;;;;;;;;;;;;;;;;6293852;28;19940;-76
2023/12/10 00:09:33;;;;;;;;;;;;;;;;;;6297187;28;19912;-76
2023/12/10 00:12:34;;;;;;;;;;;;;;;;;;6283465;28;19919;-76
2023/12/10 00:15:34;;;;;;;;;;;;;;;;;;6288294;28;19920;-76
2023/12/10 00:18:34;;;;;;;;;;;;;;;;;;6270521;28;19913;-76
2023/12/10 00:21:34;;;;;;;;;;;;;;;;;;6279140;28;19912;-76
2023/12/10 00:24:34;;;;;;;;;;;;;;;;;;6299538;28;19912;-76
2023/12/10 00:27:35;;;;;;;;;;;;;;;;;;6289814;28;19928;-76
2023/12/10 00:30:36;;;;;;;;;;;;;;;;;;6296543;28;20003;-76
2023/12/10 00:33:37;;;;;;;;;;;;;;;;;;6311250;28;19920;-76
2023/12/10 00:36:37;;;;;;;;;;;;;;;;;;6308873;28;20291;-76
2023/12/10 00:39:37;;;;;;;;;;;;;;;;;;6326134;28;19981;-77
2023/12/10 00:42:37;;;;;;;;;;;;;;;;;;6319506;28;20365;-76
2023/12/10 00:45:37;;;;;;;;;;;;;;;;;;6305709;28;19923;-76
2023/12/10 00:48:37;;;;;;;;;;;;;;;;;;6324780;28;19931;-76
2023/12/10 00:51:38;;;;;;;;;;;;;;;;;;6316771;28;19962;-76
2023/12/10 00:54:38;;;;;;;;;;;;;;;;;;6301760;28;19908;-76
2023/12/10 00:57:38;;;;;;;;;;;;;;;;;;6302576;28;20331;-76
2023/12/10 01:00:38;;;;;;;;;;;;;;;;;;6301529;28;20243;-76
2023/12/10 01:03:38;;;;;;;;;;;;;;;;;;6316912;28;20277;-76
2023/12/10 01:06:38;;;;;;;;;;;;;;;;;;6301719;28;20281;-76
2023/12/10 01:09:38;;;;;;;;;;;;;;;;;;6324325;28;20809;-76
2023/12/10 01:12:39;;;;;;;;;;;;;;;;;;6302958;28;19912;-76
2023/12/10 01:15:39;;;;;;;;;;;;;;;;;;6315961;28;19908;-76
2023/12/10 01:18:40;;;;;;;;;;;;;;;;;;6317850;28;19915;-76
2023/12/10 01:21:40;;;;;;;;;;;;;;;;;;6300715;28;20015;-76
2023/12/10 01:24:40;;;;;;;;;;;;;;;;;;6300862;28;19932;-76
2023/12/10 01:27:40;;;;;;;;;;;;;;;;;;6310727;28;19920;-76
2023/12/10 01:30:40;;;;;;;;;;;;;;;;;;6305307;28;19924;-76
2023/12/10 01:33:41;;;;;;;;;;;;;;;;;;6323854;28;19908;-76
2023/12/10 01:36:41;;;;;;;;;;;;;;;;;;6325707;28;19908;-76
2023/12/10 01:39:41;;;;;;;;;;;;;;;;;;6318197;28;20012;-76
2023/12/10 01:42:41;;;;;;;;;;;;;;;;;;6299485;28;20381;-76
2023/12/10 01:45:41;;;;;;;;;;;;;;;;;;6300766;28;19913;-76
2023/12/10 01:48:41;;;;;;;;;;;;;;;;;;6305992;28;19916;-76
2023/12/10 01:51:41;;;;;;;;;;;;;;;;;;6325109;28;19998;-76
2023/12/10 01:54:42;;;;;;;;;;;;;;;;;;6305214;28;20006;-76
2023/12/10 01:57:42;;;;;;;;;;;;;;;;;;6325115;28;20078;-76
2023/12/10 02:00:42;;;;;;;;;;;;;;;;;;6307823;28;19913;-76
2023/12/10 02:03:42;;;;;;;;;;;;;;;;;;6319829;28;19928;-76
2023/12/10 02:06:44;;;;;;;;;;;;;;;;;;6321382;28;20006;-76
2023/12/10 02:09:44;;;;;;;;;;;;;;;;;;6319206;28;20078;-76
2023/12/10 02:12:44;;;;;;;;;;;;;;;;;;6321239;28;19916;-76
2023/12/10 02:15:44;;;;;;;;;;;;;;;;;;6315613;28;19923;-76
2023/12/10 02:18:44;;;;;;;;;;;;;;;;;;6297917;28;19916;-76
2023/12/10 02:21:44;;;;;;;;;;;;;;;;;;6303221;28;19923;-76
2023/12/10 02:24:45;;;;;;;;;;;;;;;;;;6324421;28;19920;-76
2023/12/10 02:27:45;;;;;;;;;;;;;;;;;;6324841;28;19908;-75
2023/12/10 02:30:45;;;;;;;;;;;;;;;;;;6319841;28;19924;-76
2023/12/10 02:33:45;;;;;;;;;;;;;;;;;;6321268;28;20011;-76
2023/12/10 02:36:46;;;;;;;;;;;;;;;;;;6317513;28;20010;-76
2023/12/10 02:39:46;;;;;;;;;;;;;;;;;;6299474;28;19919;-76
2023/12/10 02:42:46;;;;;;;;;;;;;;;;;;6299176;28;19939;-76
2023/12/10 02:45:47;;;;;;;;;;;;;;;;;;6313630;28;19917;-76
2023/12/10 02:48:47;;;;;;;;;;;;;;;;;;6317550;28;19919;-75
2023/12/10 02:51:47;;;;;;;;;;;;;;;;;;6304003;28;19912;-76
2023/12/10 02:54:48;;;;;;;;;;;;;;;;;;6303323;28;19912;-75
2023/12/10 02:57:48;;;;;;;;;;;;;;;;;;6310752;28;19919;-76
2023/12/10 03:00:48;;;;;;;;;;;;;;;;;;6301943;28;19945;-76
2023/12/10 03:03:48;;;;;;;;;;;;;;;;;;6309140;28;20003;-76
2023/12/10 03:06:48;;;;;;;;;;;;;;;;;;6322224;28;19969;-75
2023/12/10 03:09:48;;;;;;;;;;;;;;;;;;6320932;28;19958;-76
2023/12/10 03:12:48;;;;;;;;;;;;;;;;;;6306699;28;19913;-76
2023/12/10 03:15:49;;;;;;;;;;;;;;;;;;6302708;28;19919;-76
2023/12/10 03:18:49;;;;;;;;;;;;;;;;;;6306046;28;20003;-76
2023/12/10 03:21:49;;;;;;;;;;;;;;;;;;6308178;28;19920;-75
2023/12/10 03:24:49;;;;;;;;;;;;;;;;;;6301868;28;19995;-76
2023/12/10 03:27:49;;;;;;;;;;;;;;;;;;6304002;28;19912;-76
2023/12/10 03:30:49;;;;;;;;;;;;;;;;;;6318359;28;19920;-76
2023/12/10 03:33:50;;;;;;;;;;;;;;;;;;6320463;28;19919;-76
2023/12/10 03:36:50;;;;;;;;;;;;;;;;;;6308524;28;19916;-76
2023/12/10 03:39:50;;;;;;;;;;;;;;;;;;6305393;28;19912;-75
2023/12/10 03:42:50;;;;;;;;;;;;;;;;;;6304703;28;19930;-76
2023/12/10 03:45:51;;;;;;;;;;;;;;;;;;6311855;28;19959;-75
2023/12/10 03:48:51;;;;;;;;;;;;;;;;;;6306138;28;19923;-76
2023/12/10 03:51:51;;;;;;;;;;;;;;;;;;6306387;28;20006;-76
2023/12/10 03:54:52;;;;;;;;;;;;;;;;;;6309434;28;19938;-76
2023/12/10 03:57:52;;;;;;;;;;;;;;;;;;6307343;28;19920;-76
2023/12/10 04:00:52;;;;;;;;;;;;;;;;;;6304538;28;19951;-76
2023/12/10 04:03:52;;;;;;;;;;;;;;;;;;6302284;28;19920;-75
2023/12/10 04:06:52;;;;;;;;;;;;;;;;;;6309749;28;19919;-75
2023/12/10 04:09:52;;;;;;;;;;;;;;;;;;6305858;28;19919;-75
2023/12/10 04:12:52;;;;;;;;;;;;;;;;;;6313467;28;19912;-75
2023/12/10 04:15:52;;;;;;;;;;;;;;;;;;6310839;28;19912;-75
2023/12/10 04:18:53;;;;;;;;;;;;;;;;;;6303302;28;19913;-75
2023/12/10 04:21:53;;;;;;;;;;;;;;;;;;6302569;28;19923;-75
2023/12/10 04:24:53;;;;;;;;;;;;;;;;;;6299937;28;20351;-75
2023/12/10 04:27:53;;;;;;;;;;;;;;;;;;6312543;28;20254;-75
2023/12/10 04:30:53;;;;;;;;;;;;;;;;;;6311787;28;19931;-75
2023/12/10 04:33:53;;;;;;;;;;;;;;;;;;6303556;28;19916;-75
2023/12/10 04:36:54;;;;;;;;;;;;;;;;;;6303344;28;20449;-75
2023/12/10 04:39:54;;;;;;;;;;;;;;;;;;6315042;28;20015;-75
2023/12/10 04:42:54;;;;;;;;;;;;;;;;;;6305415;28;19973;-75
2023/12/10 04:45:55;;;;;;;;;;;;;;;;;;6292395;28;20132;-75
2023/12/10 04:48:55;;;;;;;;;;;;;;;;;;6299817;28;20003;-75
2023/12/10 04:51:56;;;;;;;;;;;;;;;;;;6309549;28;19935;-75
2023/12/10 04:54:56;;;;;;;;;;;;;;;;;;6308986;28;19951;-75
2023/12/10 04:57:56;;;;;;;;;;;;;;;;;;6316810;28;19939;-75
2023/12/10 05:00:56;;;;;;;;;;;;;;;;;;6306960;28;19919;-75
2023/12/10 05:03:56;;;;;;;;;;;;;;;;;;6304690;28;19917;-75
2023/12/10 05:06:57;;;;;;;;;;;;;;;;;;6301686;28;19917;-75
2023/12/10 05:09:57;;;;;;;;;;;;;;;;;;6309527;28;19912;-75
2023/12/10 05:12:57;;;;;;;;;;;;;;;;;;6311096;28;19966;-75
2023/12/10 05:15:57;;;;;;;;;;;;;;;;;;6307214;28;19919;-76
2023/12/10 05:18:57;;;;;;;;;;;;;;;;;;6306439;28;19935;-76
2023/12/10 05:21:58;;;;;;;;;;;;;;;;;;6312957;28;19916;-76
2023/12/10 05:24:58;;;;;;;;;;;;;;;;;;6303102;28;19985;-76
2023/12/10 05:27:58;;;;;;;;;;;;;;;;;;6301115;28;19913;-76
2023/12/10 05:30:58;;;;;;;;;;;;;;;;;;6302343;28;19920;-76
2023/12/10 05:33:58;;;;;;;;;;;;;;;;;;6300422;28;19918;-77
2023/12/10 05:36:58;;;;;;;;;;;;;;;;;;6303606;28;19916;-76
2023/12/10 05:39:58;;;;;;;;;;;;;;;;;;6302621;28;20019;-77
2023/12/10 05:42:58;;;;;;;;;;;;;;;;;;6309283;28;20004;-76
2023/12/10 05:45:59;;;;;;;;;;;;;;;;;;5952283;27;9999825;-76
2023/12/10 05:48:59;;;;;;;;;;;;;;;;;;6295836;28;20158;-76
2023/12/10 05:52:00;;;;;;;;;;;;;;;;;;6309310;28;19947;-76
2023/12/10 05:55:00;;;;;;;;;;;;;;;;;;6312848;28;19920;-76
2023/12/10 05:58:00;;;;;;;;;;;;;;;;;;6315872;28;19920;-76
2023/12/10 06:01:00;;;;;;;;;;;;;;;;;;6304765;28;19909;-76
2023/12/10 06:04:00;;;;;;;;;;;;;;;;;;6308114;28;19920;-76
2023/12/10 06:07:00;;;;;;;;;;;;;;;;;;6325692;28;19924;-76
2023/12/10 06:10:00;;;;;;;;;;;;;;;;;;6290871;28;19916;-76
2023/12/10 06:13:01;;;;;;;;;;;;;;;;;;6302099;28;19912;-76
2023/12/10 06:16:02;;;;;;;;;;;;;;;;;;6303242;28;19920;-76
2023/12/10 06:19:02;;;;;;;;;;;;;;;;;;6294085;28;19912;-77
2023/12/10 06:22:03;;;;;;;;;;;;;;;;;;6302844;28;19924;-76
2023/12/10 06:25:03;;;;;;;;;;;;;;;;;;6294061;28;19999;-76
2023/12/10 06:28:03;;;;;;;;;;;;;;;;;;6298767;28;20480;-76
2023/12/10 06:31:03;;;;;;;;;;;;;;;;;;6299221;28;20010;-76
2023/12/10 06:34:03;;;;;;;;;;;;;;;;;;6302187;28;20292;-76
2023/12/10 06:37:03;;;;;;;;;;;;;;;;;;6309230;28;20222;-76
2023/12/10 06:40:03;;;;;;;;;;;;;;;;;;6301160;28;19916;-76
2023/12/10 06:43:03;;;;;;;;;;;;;;;;;;5608949;28;10000749;-76
2023/12/10 06:46:04;;;;;;;;;;;;;;;;;;6313930;28;19920;-76
2023/12/10 06:49:04;;;;;;;;;;;;;;;;;;6302554;28;19916;-76
2023/12/10 06:52:04;;;;;;;;;;;;;;;;;;6302952;28;19913;-76
2023/12/10 06:55:06;;;;;;;;;;;;;;;;;;6314936;28;20435;-76
2023/12/10 06:58:06;;;;;;;;;;;;;;;;;;6307931;28;19919;-76
2023/12/10 07:01:06;;;;;;;;;;;;;;;;;;6303629;28;20369;-76
2023/12/10 07:04:07;;;;;;;;;;;;;;;;;;6308466;28;19916;-76
2023/12/10 07:07:07;;;;;;;;;;;;;;;;;;6304479;28;19920;-76
2023/12/10 07:10:07;;;;;;;;;;;;;;;;;;6315544;28;19916;-76
2023/12/10 07:13:07;;;;;;;;;;;;;;;;;;6301888;28;19912;-76
2023/12/10 07:16:07;;;;;;;;;;;;;;;;;;6291289;28;19912;-76
2023/12/10 07:19:08;;;;;;;;;;;;;;;;;;6294925;28;19966;-76
2023/12/10 07:22:08;;;;;;;;;;;;;;;;;;6303658;28;20369;-76
2023/12/10 07:25:08;;;;;;;;;;;;;;;;;;6296333;28;20425;-76
2023/12/10 07:28:08;;;;;;;;;;;;;;;;;;6298747;28;20464;-76
2023/12/10 07:31:08;;;;;;;;;;;;;;;;;;6301089;28;19963;-76
2023/12/10 07:34:08;;;;;;;;;;;;;;;;;;6300059;28;19958;-76
2023/12/10 07:37:08;;;;;;;;;;;;;;;;;;6301355;28;19920;-76
2023/12/10 07:40:09;;;;;;;;;;;;;;;;;;6305625;28;19917;-76
2023/12/10 07:43:09;;;;;;;;;;;;;;;;;;6299092;28;19924;-76
2023/12/10 07:46:09;;;;;;;;;;;;;;;;;;6310543;28;19978;-76
2023/12/10 07:49:09;;;;;;;;;;;;;;;;;;6313226;28;19924;-76
2023/12/10 07:52:09;;;;;;;;;;;;;;;;;;6320941;28;19916;-77
2023/12/10 07:55:09;;;;;;;;;;;;;;;;;;6289936;28;19913;-77
2023/12/10 07:58:09;;;;;;;;;;;;;;;;;;6296174;28;19927;-77
2023/12/10 08:01:10;;;;;;;;;;;;;;;;;;6300424;28;19913;-76
2023/12/10 08:04:10;;;;;;;;;;;;;;;;;;6314103;28;19928;-76
2023/12/10 08:07:10;;;;;;;;;;;;;;;;;;6305988;28;20022;-76
2023/12/10 08:10:10;;;;;;;;;;;;;;;;;;6305127;28;19966;-75
2023/12/10 08:13:10;;;;;;;;;;;;;;;;;;6301997;28;19913;-75
2023/12/10 08:16:10;;;;;;;;;;;;;;;;;;6298854;28;19912;-75
2023/12/10 08:19:11;;;;;;;;;;;;;;;;;;6300535;28;20008;-75
2023/12/10 08:22:13;;;;;;;;;;;;;;;;;;6302337;28;19921;-75
2023/12/10 08:25:13;;;;;;;;;;;;;;;;;;6297499;28;19966;-77
2023/12/10 08:28:14;;;;;;;;;;;;;;;;;;6321660;28;19913;-78
2023/12/10 08:31:14;;;;;;;;;;;;;;;;;;6308184;28;19946;-76
2023/12/10 08:34:14;;;;;;;;;;;;;;;;;;6302905;28;20385;-77
2023/12/10 08:37:14;;;;;;;;;;;;;;;;;;6311949;28;19931;-77
2023/12/10 08:40:14;;;;;;;;;;;;;;;;;;6306396;28;20003;-76
2023/12/10 08:43:15;;;;;;;;;;;;;;;;;;5970089;28;9999865;-77
2023/12/10 08:46:15;;;;;;;;;;;;;;;;;;6310842;28;19947;-77
2023/12/10 08:49:15;;;;;;;;;;;;;;;;;;6303850;28;19979;-78
2023/12/10 08:52:15;;;;;;;;;;;;;;;;;;6303417;28;19912;-78
2023/12/10 08:55:15;;;;;;;;;;;;;;;;;;6309424;28;19958;-77
2023/12/10 08:58:15;;;;;;;;;;;;;;;;;;6307846;28;19917;-77
2023/12/10 09:01:16;;;;;;;;;;;;;;;;;;6313653;28;19927;-77
2023/12/10 09:04:16;;;;;;;;;;;;;;;;;;6311606;28;19963;-77
2023/12/10 09:07:16;;;;;;;;;;;;;;;;;;6307599;28;19912;-77
2023/12/10 09:10:16;;;;;;;;;;;;;;;;;;6318176;28;19914;-77
2023/12/10 09:13:16;;;;;;;;;;;;;;;;;;6315487;28;20266;-77
2023/12/10 09:16:17;;;;;;;;;;;;;;;;;;6314175;28;20386;-77
2023/12/10 09:19:17;;;;;;;;;;;;;;;;;;6311647;28;20292;-77
2023/12/10 09:22:17;;;;;;;;;;;;;;;;;;6318109;28;19916;-77
2023/12/10 09:25:17;;;;;;;;;;;;;;;;;;6317679;28;20411;-77
2023/12/10 09:28:17;;;;;;;;;;;;;;;;;;6309359;28;19912;-77
2023/12/10 09:31:17;;;;;;;;;;;;;;;;;;6309425;28;20359;-77
2023/12/10 09:34:18;;;;;;;;;;;;;;;;;;6299022;28;19935;-77
2023/12/10 09:37:18;;;;;;;;;;;;;;;;;;6309788;28;19918;-77
2023/12/10 09:40:18;;;;;;;;;;;;;;;;;;6308026;28;20003;-77
2023/12/10 09:43:18;;;;;;;;;;;;;;;;;;6309261;28;19999;-77
2023/12/10 09:46:18;;;;;;;;;;;;;;;;;;6321554;28;20392;-79
2023/12/10 09:49:18;;;;;;;;;;;;;;;;;;6302811;28;20357;-80
2023/12/10 09:52:19;;;;;;;;;;;;;;;;;;6302402;28;19912;-80
2023/12/10 09:55:19;;;;;;;;;;;;;;;;;;6309964;28;19959;-79
2023/12/10 09:58:19;;;;;;;;;;;;;;;;;;6314708;28;20008;-79
2023/12/10 10:01:19;;;;;;;;;;;;;;;;;;6313235;28;20379;-80
2023/12/10 10:04:19;;;;;;;;;;;;;;;;;;6306242;28;19962;-79
2023/12/10 10:07:20;;;;;;;;;;;;;;;;;;6314140;28;19913;-79
2023/12/10 10:10:20;;;;;;;;;;;;;;;;;;6297077;28;19913;-79
2023/12/10 10:13:20;;;;;;;;;;;;;;;;;;6318151;28;19912;-79
2023/12/10 10:16:20;;;;;;;;;;;;;;;;;;6309401;28;19935;-80
2023/12/10 10:19:20;;;;;;;;;;;;;;;;;;6302528;28;19912;-79
2023/12/10 10:22:21;;;;;;;;;;;;;;;;;;6309507;28;19920;-79
2023/12/10 10:25:21;;;;;;;;;;;;;;;;;;6314545;28;20418;-80
2023/12/10 10:28:21;;;;;;;;;;;;;;;;;;6313127;28;19919;-81
2023/12/10 10:31:21;;;;;;;;;;;;;;;;;;6299481;28;19928;-79
2023/12/10 10:34:22;;;;;;;;;;;;;;;;;;6308335;28;19958;-79
2023/12/10 10:37:22;;;;;;;;;;;;;;;;;;6302961;28;20610;-80
2023/12/10 10:40:22;;;;;;;;;;;;;;;;;;6302841;28;19912;-81
2023/12/10 10:43:22;;;;;;;;;;;;;;;;;;6317016;28;19923;-81
2023/12/10 10:46:22;;;;;;;;;;;;;;;;;;6299910;28;19916;-81
2023/12/10 10:49:22;;;;;;;;;;;;;;;;;;6305136;28;20088;-83
2023/12/10 10:52:23;;;;;;;;;;;;;;;;;;6310651;28;19916;-82
2023/12/10 10:55:23;;;;;;;;;;;;;;;;;;6306013;28;19917;-83
2023/12/10 10:58:24;;;;;;;;;;;;;;;;;;6307937;28;19923;-83
2023/12/10 11:01:24;;;;;;;;;;;;;;;;;;6296755;28;19916;-83
2023/12/10 11:04:25;;;;;;;;;;;;;;;;;;6296475;28;19920;-81
2023/12/10 11:07:25;;;;;;;;;;;;;;;;;;6303372;28;19931;-82
2023/12/10 11:10:25;;;;;;;;;;;;;;;;;;6304204;28;19915;-82
2023/12/10 11:13:25;;;;;;;;;;;;;;;;;;6308941;28;19923;-83
2023/12/10 11:16:25;;;;;;;;;;;;;;;;;;6286689;28;19966;-83
2023/12/10 11:19:26;;;;;;;;;;;;;;;;;;6321045;28;19917;-82
2023/12/10 11:22:26;;;;;;;;;;;;;;;;;;6304472;28;20303;-83
2023/12/10 11:25:28;;;;;;;;;;;;;;;;;;6297382;28;19958;-83
2023/12/10 11:28:28;;;;;;;;;;;;;;;;;;6307126;28;19950;-82
2023/12/10 11:31:29;;;;;;;;;;;;;;;;;;6300668;28;19999;-85
2023/12/10 11:34:29;;;;;;;;;;;;;;;;;;6307428;28;19974;-82
2023/12/10 11:37:29;;;;;;;;;;;;;;;;;;6313739;28;20296;-85
2023/12/10 11:40:29;;;;;;;;;;;;;;;;;;6304994;28;19973;-85
2023/12/10 11:43:29;;;;;;;;;;;;;;;;;;6303468;28;20368;-85
2023/12/10 11:46:29;;;;;;;;;;;;;;;;;;5955792;27;10000189;-84
2023/12/10 11:49:29;;;;;;;;;;;;;;;;;;6289685;28;20542;-84
2023/12/10 11:52:31;;;;;;;;;;;;;;;;;;6307327;28;19923;-84
2023/12/10 11:55:32;;;;;;;;;;;;;;;;;;6304044;28;19913;-85
2023/12/10 11:58:32;;;;;;;;;;;;;;;;;;6304549;28;20369;-85
2023/12/10 12:01:32;;;;;;;;;;;;;;;;;;6295535;28;20377;-84
2023/12/10 12:04:32;;;;;;;;;;;;;;;;;;6302015;28;19916;-81
2023/12/10 12:07:32;;;;;;;;;;;;;;;;;;6308073;28;19935;-80
2023/12/10 12:10:32;;;;;;;;;;;;;;;;;;6298419;28;19999;-81
2023/12/10 12:13:32;;;;;;;;;;;;;;;;;;6298856;28;19920;-80
2023/12/10 12:16:33;;;;;;;;;;;;;;;;;;6295612;28;19916;-80
2023/12/10 12:19:33;;;;;;;;;;;;;;;;;;6293886;28;19923;-80
2023/12/10 12:22:33;;;;;;;;;;;;;;;;;;6295908;28;19930;-80
2023/12/10 12:25:37;;;;;;;;;;;;;;;;;;6308850;28;19916;-80
2023/12/10 12:28:38;;;;;;;;;;;;;;;;;;6307167;28;19923;-80
2023/12/10 12:31:38;;;;;;;;;;;;;;;;;;6313929;28;19963;-80
2023/12/10 12:34:38;;;;;;;;;;;;;;;;;;6304683;28;19969;-80
2023/12/10 12:37:38;;;;;;;;;;;;;;;;;;6302883;28;19912;-80
2023/12/10 12:40:38;;;;;;;;;;;;;;;;;;6288932;28;19916;-81
2023/12/10 12:43:39;;;;;;;;;;;;;;;;;;6298065;28;19931;-80
2023/12/10 12:46:40;;;;;;;;;;;;;;;;;;6300670;28;19912;-81
2023/12/10 12:49:40;;;;;;;;;;;;;;;;;;6301975;28;20424;-83
2023/12/10 12:52:40;;;;;;;;;;;;;;;;;;6301698;28;19948;-82
2023/12/10 12:55:40;;;;;;;;;;;;;;;;;;6307430;28;19919;-80
2023/12/10 12:58:41;;;;;;;;;;;;;;;;;;6287789;28;19927;-80
2023/12/10 13:01:41;;;;;;;;;;;;;;;;;;6305253;28;20382;-81
2023/12/10 13:04:41;;;;;;;;;;;;;;;;;;6299213;28;19928;-81
2023/12/10 13:07:41;;;;;;;;;;;;;;;;;;6299900;28;19919;-83
2023/12/10 13:10:41;;;;;;;;;;;;;;;;;;6299554;28;19916;-80
2023/12/10 13:13:41;;;;;;;;;;;;;;;;;;6304940;28;19920;-81
2023/12/10 13:16:43;;;;;;;;;;;;;;;;;;6298062;28;20315;-81
2023/12/10 13:19:43;;;;;;;;;;;;;;;;;;6302767;28;20384;-81
2023/12/10 13:22:43;;;;;;;;;;;;;;;;;;6293472;28;19931;-80
2023/12/10 13:25:43;;;;;;;;;;;;;;;;;;6309808;28;19983;-80
2023/12/10 13:28:44;;;;;;;;;;;;;;;;;;6297094;28;20031;-81
2023/12/10 13:31:44;;;;;;;;;;;;;;;;;;6307439;28;19930;-82
2023/12/10 13:34:44;;;;;;;;;;;;;;;;;;6290653;28;19917;-82
2023/12/10 13:37:44;;;;;;;;;;;;;;;;;;6310930;28;19927;-84
2023/12/10 13:40:44;;;;;;;;;;;;;;;;;;6314871;28;19977;-84
2023/12/10 13:43:44;;;;;;;;;;;;;;;;;;6302541;28;19978;-84
2023/12/10 13:46:46;;;;;;;;;;;;;;;;;;6311021;28;19920;-83
2023/12/10 13:49:47;;;;;;;;;;;;;;;;;;6308334;28;19913;-84
2023/12/10 13:52:47;;;;;;;;;;;;;;;;;;6330144;28;19944;-83
2023/12/10 13:55:47;;;;;;;;;;;;;;;;;;6316798;28;19923;-82
2023/12/10 13:58:47;;;;;;;;;;;;;;;;;;6309682;28;19920;-83
2023/12/10 14:01:47;;;;;;;;;;;;;;;;;;6291088;28;19930;-84
2023/12/10 14:04:48;;;;;;;;;;;;;;;;;;6311303;28;20076;-84
2023/12/10 14:07:48;;;;;;;;;;;;;;;;;;6303469;28;19912;-84
2023/12/10 14:10:48;;;;;;;;;;;;;;;;;;6313405;28;19916;-85
2023/12/10 14:13:48;;;;;;;;;;;;;;;;;;6304812;28;19916;-85
2023/12/10 14:16:48;;;;;;;;;;;;;;;;;;6301372;28;19916;-85
2023/12/10 14:19:49;;;;;;;;;;;;;;;;;;6304201;28;20403;-85
2023/12/10 14:22:49;;;;;;;;;;;;;;;;;;6321363;28;20377;-85
2023/12/10 14:25:49;;;;;;;;;;;;;;;;;;6309161;28;20280;-86
2023/12/10 14:28:51;;;;;;;;;;;;;;;;;;6308195;28;19916;-85
2023/12/10 14:31:51;;;;;;;;;;;;;;;;;;6286635;28;20042;-86
2023/12/10 14:34:51;;;;;;;;;;;;;;;;;;6293543;28;19917;-85
2023/12/10 14:37:52;;;;;;;;;;;;;;;;;;6306484;28;19916;-85
2023/12/10 14:40:52;;;;;;;;;;;;;;;;;;6305646;28;20414;-85
2023/12/10 14:43:52;;;;;;;;;;;;;;;;;;6315847;28;20284;-86
2023/12/10 14:46:52;;;;;;;;;;;;;;;;;;6321728;27;19916;-86
2023/12/10 14:49:52;;;;;;;;;;;;;;;;;;6302910;28;19923;-86
2023/12/10 14:52:52;;;;;;;;;;;;;;;;;;6300452;28;19913;-86
2023/12/10 14:55:53;;;;;;;;;;;;;;;;;;6303980;28;19928;-85
2023/12/10 14:58:53;;;;;;;;;;;;;;;;;;6310954;28;19966;-85
2023/12/10 15:01:53;;;;;;;;;;;;;;;;;;6302369;28;20668;-86
2023/12/10 15:04:53;;;;;;;;;;;;;;;;;;6309417;28;20329;-85
2023/12/10 15:07:53;;;;;;;;;;;;;;;;;;6315810;28;20077;-86
2023/12/10 15:10:53;;;;;;;;;;;;;;;;;;6299889;28;19963;-85
2023/12/10 15:13:53;;;;;;;;;;;;;;;;;;6330465;28;20461;-85
2023/12/10 15:16:54;;;;;;;;;;;;;;;;;;6307628;28;20280;-86
2023/12/10 15:19:54;;;;;;;;;;;;;;;;;;6293223;28;19924;-86
2023/12/10 15:22:54;;;;;;;;;;;;;;;;;;6303983;28;19928;-85
2023/12/10 15:25:54;;;;;;;;;;;;;;;;;;6315958;28;19943;-85
2023/12/10 15:28:56;;;;;;;;;;;;;;;;;;6307511;28;19959;-85
2023/12/10 15:31:56;;;;;;;;;;;;;;;;;;6302332;28;19931;-85
2023/12/10 15:34:57;;;;;;;;;;;;;;;;;;6295436;28;19912;-85
2023/12/10 15:37:57;;;;;;;;;;;;;;;;;;6298772;28;19912;-86
2023/12/10 15:40:57;;;;;;;;;;;;;;;;;;6301578;28;19916;-84
2023/12/10 15:43:57;;;;;;;;;;;;;;;;;;6303032;28;20007;-82
2023/12/10 15:46:58;;;;;;;;;;;;;;;;;;6296562;28;20016;-82
2023/12/10 15:49:58;;;;;;;;;;;;;;;;;;6315037;28;20073;-82
2023/12/10 15:52:58;;;;;;;;;;;;;;;;;;6322974;28;19999;-82
2023/12/10 15:55:58;;;;;;;;;;;;;;;;;;6310014;28;19923;-83
2023/12/10 15:58:58;;;;;;;;;;;;;;;;;;6300951;28;20292;-82
2023/12/10 16:01:58;;;;;;;;;;;;;;;;;;6311687;28;20308;-83
2023/12/10 16:04:58;;;;;;;;;;;;;;;;;;6302292;28;19916;-83
2023/12/10 16:07:59;;;;;;;;;;;;;;;;;;6312986;28;19916;-83
2023/12/10 16:10:59;;;;;;;;;;;;;;;;;;6311533;28;19935;-83
2023/12/10 16:13:59;;;;;;;;;;;;;;;;;;6300514;28;19919;-82
2023/12/10 16:16:59;;;;;;;;;;;;;;;;;;6312971;28;19916;-89
2023/12/10 16:19:59;;;;;;;;;;;;;;;;;;6286143;28;19917;-82
2023/12/10 16:23:00;;;;;;;;;;;;;;;;;;6300975;28;19920;-82
2023/12/10 16:26:00;;;;;;;;;;;;;;;;;;5956099;28;9999836;-82
2023/12/10 16:29:01;;;;;;;;;;;;;;;;;;6306630;28;19963;-82
2023/12/10 16:32:01;;;;;;;;;;;;;;;;;;6300929;28;19924;-82
2023/12/10 16:35:02;;;;;;;;;;;;;;;;;;6298199;28;20011;-81
2023/12/10 16:38:02;;;;;;;;;;;;;;;;;;6298675;28;20437;-82
2023/12/10 16:41:02;;;;;;;;;;;;;;;;;;6305792;28;19912;-83
2023/12/10 16:44:02;;;;;;;;;;;;;;;;;;6301836;28;19927;-81
2023/12/10 16:47:02;;;;;;;;;;;;;;;;;;6304253;28;19916;-82
2023/12/10 16:50:05;;;;;;;;;;;;;;;;;;6301281;28;19917;-84
2023/12/10 16:53:05;;;;;;;;;;;;;;;;;;6305324;28;19924;-83
2023/12/10 16:56:05;;;;;;;;;;;;;;;;;;6291766;28;20258;-81
2023/12/10 16:59:05;;;;;;;;;;;;;;;;;;6305970;28;19917;-83
2023/12/10 17:02:05;;;;;;;;;;;;;;;;;;6313568;28;19920;-83
2023/12/10 17:05:06;;;;;;;;;;;;;;;;;;6293316;28;19977;-83
2023/12/10 17:08:09;;;;;;;;;;;;;;;;;;6317266;28;20007;-82
2023/12/10 17:11:09;;;;;;;;;;;;;;;;;;6294542;28;19982;-82
2023/12/10 17:14:09;;;;;;;;;;;;;;;;;;6322451;28;20280;-83
2023/12/10 17:17:10;;;;;;;;;;;;;;;;;;6308215;28;20381;-84
2023/12/10 17:20:10;;;;;;;;;;;;;;;;;;6315825;28;20286;-82
2023/12/10 17:23:10;;;;;;;;;;;;;;;;;;6302151;28;20289;-82
2023/12/10 17:26:10;;;;;;;;;;;;;;;;;;6305979;28;20293;-82
2023/12/10 17:29:10;;;;;;;;;;;;;;;;;;6305885;28;19916;-83
2023/12/10 17:32:10;;;;;;;;;;;;;;;;;;6326039;28;19927;-81
2023/12/10 17:35:10;;;;;;;;;;;;;;;;;;6313753;28;19919;-82
2023/12/10 17:38:11;;;;;;;;;;;;;;;;;;6336583;28;19935;-84
2023/12/10 17:41:12;;;;;;;;;;;;;;;;;;6295658;28;20270;-86
2023/12/10 17:44:12;;;;;;;;;;;;;;;;;;6287494;28;19920;-86
2023/12/10 17:47:12;;;;;;;;;;;;;;;;;;6304582;28;19912;-83
2023/12/10 17:50:15;;;;;;;;;;;;;;;;;;6321716;28;19965;-84
2023/12/10 17:53:16;;;;;;;;;;;;;;;;;;6314420;28;19912;-84
2023/12/10 17:56:16;;;;;;;;;;;;;;;;;;6313084;28;19912;-85
2023/12/10 17:59:16;;;;;;;;;;;;;;;;;;6315705;28;19913;-84
2023/12/10 18:02:17;;;;;;;;;;;;;;;;;;6288403;28;20872;-82
2023/12/10 18:05:17;;;;;;;;;;;;;;;;;;6298379;28;19912;-85
2023/12/10 18:08:17;;;;;;;;;;;;;;;;;;6331414;28;19919;-86
2023/12/10 18:11:17;;;;;;;;;;;;;;;;;;6307471;28;20005;-85
2023/12/10 18:14:18;;;;;;;;;;;;;;;;;;6298010;28;19952;-86
2023/12/10 18:17:19;;;;;;;;;;;;;;;;;;6304465;28;19927;-86
2023/12/10 18:20:19;;;;;;;;;;;;;;;;;;6319872;28;19912;-79
2023/12/10 18:23:19;;;;;;;;;;;;;;;;;;6309628;28;20011;-79
2023/12/10 18:26:19;;;;;;;;;;;;;;;;;;6309220;28;19995;-86
2023/12/10 18:29:19;;;;;;;;;;;;;;;;;;5968868;27;10000302;-85
2023/12/10 18:32:19;;;;;;;;;;;;;;;;;;6315170;28;20023;-86
2023/12/10 18:35:21;;;;;;;;;;;;;;;;;;6312213;28;19916;-86
2023/12/10 18:38:22;;;;;;;;;;;;;;;;;;6303551;28;19951;-86
2023/12/10 18:41:22;;;;;;;;;;;;;;;;;;6315672;28;20362;-87
2023/12/10 18:44:22;;;;;;;;;;;;;;;;;;6297579;28;19927;-85
2023/12/10 18:47:22;;;;;;;;;;;;;;;;;;6306551;28;19916;-86
2023/12/10 18:50:22;;;;;;;;;;;;;;;;;;6297500;28;19916;-86
2023/12/10 18:53:23;;;;;;;;;;;;;;;;;;6283327;28;20477;-87
2023/12/10 18:56:23;;;;;;;;;;;;;;;;;;6305314;28;20723;-86
2023/12/10 18:59:23;;;;;;;;;;;;;;;;;;6308160;28;19920;-86
2023/12/10 19:02:23;;;;;;;;;;;;;;;;;;6304522;28;20372;-85
2023/12/10 19:05:24;;;;;;;;;;;;;;;;;;6289577;28;19973;-85
2023/12/10 19:08:24;;;;;;;;;;;;;;;;;;6296548;28;19924;-85
2023/12/10 19:11:24;;;;;;;;;;;;;;;;;;6307518;28;19916;-87
2023/12/10 19:14:24;;;;;;;;;;;;;;;;;;6302624;28;19916;-85
2023/12/10 19:17:24;;;;;;;;;;;;;;;;;;6306232;28;20045;-85
2023/12/10 19:20:24;;;;;;;;;;;;;;;;;;6293908;28;19923;-86
2023/12/10 19:23:25;;;;;;;;;;;;;;;;;;6317058;28;19924;-87
2023/12/10 19:26:27;;;;;;;;;;;;;;;;;;6300563;28;19927;-87
2023/12/10 19:29:28;;;;;;;;;;;;;;;;;;6303739;28;20380;-87
2023/12/10 19:32:28;;;;;;;;;;;;;;;;;;6308761;28;19920;-87
2023/12/10 19:35:29;;;;;;;;;;;;;;;;;;6288646;28;19912;-87
2023/12/10 19:38:29;;;;;;;;;;;;;;;;;;6285538;28;19998;-87
2023/12/10 19:41:29;;;;;;;;;;;;;;;;;;6297959;28;19935;-88
2023/12/10 19:44:29;;;;;;;;;;;;;;;;;;6300616;28;19924;-88
2023/12/10 19:47:29;;;;;;;;;;;;;;;;;;6293778;28;19916;-87
2023/12/10 19:50:30;;;;;;;;;;;;;;;;;;6285239;28;19915;-88
2023/12/10 19:53:30;;;;;;;;;;;;;;;;;;6298858;28;20400;-88
2023/12/10 19:56:30;;;;;;;;;;;;;;;;;;6292414;28;20277;-88
2023/12/10 19:59:32;;;;;;;;;;;;;;;;;;6304254;28;20318;-88
2023/12/10 20:02:32;;;;;;;;;;;;;;;;;;6303589;28;19931;-89
2023/12/10 20:05:32;;;;;;;;;;;;;;;;;;6313726;28;19963;-88
2023/12/10 20:08:33;;;;;;;;;;;;;;;;;;6302139;28;19959;-88
2023/12/10 20:11:33;;;;;;;;;;;;;;;;;;6302638;28;19987;-88
2023/12/10 20:14:33;;;;;;;;;;;;;;;;;;6300329;28;20358;-88
2023/12/10 20:17:33;;;;;;;;;;;;;;;;;;6288472;28;19912;-88
2023/12/10 20:20:34;;;;;;;;;;;;;;;;;;6306079;28;19916;-89
2023/12/10 20:23:34;;;;;;;;;;;;;;;;;;6287950;28;20286;-88
2023/12/10 20:26:35;;;;;;;;;;;;;;;;;;6313200;28;19912;-89